Time;durP1;ratioP1;P1;durP2;ratioP2;P2;SDS_P1;SDS_P2;PMS_P1;PMS_P2;Temp;Humidity;BMP_temperature;BMP_pressure;BME280_temperature;BME280_humidity;BME280_pressure;Samples;Min_cycle;Max_cycle;Signal;HPM_P1;HPM_P2
2023/07/16 00:02:37;;;;;;;20.80;12.57;;;26.00;99.90;;;;;;5090219;28;20063;-51
2023/07/16 00:05:41;;;;;;;20.20;11.75;;;25.90;99.90;;;;;;5090756;28;20525;-53
2023/07/16 00:08:45;;;;;;;22.58;12.45;;;25.90;99.90;;;;;;5090299;28;20039;-51
2023/07/16 00:11:49;;;;;;;24.13;12.15;;;25.90;99.90;;;;;;5085792;28;20043;-53
2023/07/16 00:14:53;;;;;;;24.52;12.85;;;25.80;99.90;;;;;;5090661;28;20090;-52
2023/07/16 00:17:57;;;;;;;24.13;13.10;;;25.80;99.90;;;;;;5090270;28;20050;-52
2023/07/16 00:21:01;;;;;;;21.02;13.02;;;25.70;99.90;;;;;;5090386;28;20142;-52
2023/07/16 00:24:05;;;;;;;25.92;13.57;;;25.70;99.90;;;;;;5090520;28;20066;-53
2023/07/16 00:27:09;;;;;;;23.02;13.65;;;25.60;99.90;;;;;;5090684;28;20043;-52
2023/07/16 00:30:13;;;;;;;26.75;12.88;;;25.50;99.90;;;;;;5090034;28;20047;-52
2023/07/16 00:33:17;;;;;;;22.50;13.52;;;25.50;99.90;;;;;;5089964;28;20063;-52
2023/07/16 00:36:22;;;;;;;28.70;13.27;;;25.50;99.90;;;;;;5088731;28;20517;-52
2023/07/16 00:39:26;;;;;;;21.20;13.38;;;25.50;99.90;;;;;;5090054;28;20520;-52
2023/07/16 00:42:30;;;;;;;20.33;13.95;;;25.40;99.90;;;;;;5089686;28;20051;-56
2023/07/16 00:45:35;;;;;;;20.73;13.70;;;25.30;99.90;;;;;;5089069;28;20035;-54
2023/07/16 00:48:41;;;;;;;25.30;12.95;;;25.20;99.90;;;;;;5089948;28;20043;-53
2023/07/16 00:51:46;;;;;;;22.00;13.05;;;25.20;99.90;;;;;;5089866;28;20047;-52
2023/07/16 00:54:50;;;;;;;24.20;13.48;;;25.10;99.90;;;;;;5090010;28;20047;-53
2023/07/16 00:57:57;;;;;;;26.63;11.80;;;25.10;99.90;;;;;;5088974;28;20050;-53
2023/07/16 01:01:01;;;;;;;20.95;12.10;;;25.10;99.90;;;;;;5089138;28;20071;-55
2023/07/16 01:04:05;;;;;;;21.40;11.85;;;25.10;99.90;;;;;;5090016;28;20051;-55
2023/07/16 01:07:13;;;;;;;21.33;11.52;;;25.00;99.90;;;;;;5089979;28;20043;-53
2023/07/16 01:10:17;;;;;;;21.88;13.10;;;25.00;99.90;;;;;;5089179;28;20051;-52
2023/07/16 01:13:24;;;;;;;19.92;11.82;;;24.90;99.90;;;;;;5088721;28;20055;-52
2023/07/16 01:16:28;;;;;;;26.42;13.60;;;24.90;99.90;;;;;;5089148;28;20058;-53
2023/07/16 01:19:35;;;;;;;28.75;14.80;;;24.80;99.90;;;;;;5089527;28;20051;-51
2023/07/16 01:23:02;;;;;;;31.35;15.15;;;24.70;99.90;;;;;;5088531;28;20040;-52
2023/07/16 01:26:15;;;;;;;34.60;16.92;;;24.50;99.90;;;;;;5089167;28;20059;-52
2023/07/16 01:29:37;;;;;;;25.98;15.02;;;24.30;99.90;;;;;;5088498;28;20044;-56
2023/07/16 01:32:41;;;;;;;34.65;16.33;;;24.10;99.90;;;;;;5089185;28;20402;-56
2023/07/16 01:35:48;;;;;;;31.60;17.27;;;24.10;99.90;;;;;;5089626;28;20418;-54
2023/07/16 01:38:52;;;;;;;33.25;17.65;;;23.90;99.90;;;;;;5089403;28;20047;-54
2023/07/16 01:41:57;;;;;;;25.80;15.73;;;23.90;99.90;;;;;;5089121;28;20047;-56
2023/07/16 01:45:01;;;;;;;25.27;15.32;;;23.80;99.90;;;;;;5090034;28;20398;-55
2023/07/16 01:48:24;;;;;;;26.20;16.58;;;23.70;99.90;;;;;;5090972;28;20051;-56
2023/07/16 01:51:28;;;;;;;21.10;15.65;;;23.70;99.90;;;;;;5093437;28;20537;-55
2023/07/16 01:54:32;;;;;;;29.80;16.98;;;23.70;99.90;;;;;;5093413;28;20063;-54
2023/07/16 01:57:36;;;;;;;27.00;15.85;;;23.80;99.90;;;;;;5093535;28;20042;-54
2023/07/16 02:00:40;;;;;;;27.77;15.60;;;23.80;99.90;;;;;;5092238;28;20673;-52
2023/07/16 02:03:44;;;;;;;25.95;16.85;;;23.70;99.90;;;;;;5093120;28;20047;-53
2023/07/16 02:06:48;;;;;;;31.50;17.52;;;23.60;99.90;;;;;;5093494;28;20050;-53
2023/07/16 02:09:56;;;;;;;35.92;17.05;;;23.50;99.90;;;;;;5092199;28;20047;-50
2023/07/16 02:13:00;;;;;;;28.98;18.42;;;23.50;99.90;;;;;;5092957;28;20059;-55
2023/07/16 02:16:04;;;;;;;26.65;16.17;;;23.40;99.90;;;;;;5092373;28;20054;-56
2023/07/16 02:19:08;;;;;;;26.02;15.45;;;23.40;99.90;;;;;;5092299;28;20054;-52
2023/07/16 02:22:13;;;;;;;29.00;15.88;;;23.40;99.90;;;;;;5092352;28;20051;-52
2023/07/16 02:25:17;;;;;;;30.95;17.08;;;23.40;99.90;;;;;;5092979;28;20063;-54
2023/07/16 02:28:21;;;;;;;32.88;16.73;;;23.40;99.90;;;;;;5092029;28;20040;-52
2023/07/16 02:31:25;;;;;;;34.33;16.30;;;23.40;99.90;;;;;;5091427;28;20047;-56
2023/07/16 02:34:30;;;;;;;26.13;16.23;;;23.40;99.90;;;;;;5091983;28;20055;-52
2023/07/16 02:37:34;;;;;;;30.05;16.60;;;23.40;99.90;;;;;;5092864;28;20059;-52
2023/07/16 02:40:44;;;;;;;29.52;16.60;;;23.40;99.90;;;;;;5092528;28;20054;-53
2023/07/16 02:43:47;;;;;;;27.45;16.65;;;23.30;99.90;;;;;;5092458;28;20051;-53
2023/07/16 02:46:52;;;;;;;28.80;16.23;;;23.30;99.90;;;;;;5092912;28;20047;-56
2023/07/16 02:49:56;;;;;;;29.25;16.70;;;23.30;99.90;;;;;;5091374;28;20047;-56
2023/07/16 02:53:00;;;;;;;29.33;16.25;;;23.20;99.90;;;;;;5091085;28;20043;-53
2023/07/16 02:56:04;;;;;;;29.35;16.17;;;23.20;99.90;;;;;;5091102;28;20423;-52
2023/07/16 02:59:08;;;;;;;28.67;14.93;;;23.10;99.90;;;;;;5091522;28;20059;-55
2023/07/16 03:02:11;;;;;;;31.65;16.23;;;23.10;99.90;;;;;;5090310;28;20047;-56
2023/07/16 03:05:18;;;;;;;34.90;15.32;;;23.10;99.90;;;;;;5091366;28;20034;-56
2023/07/16 03:08:26;;;;;;;36.63;15.00;;;23.10;99.90;;;;;;5091707;28;20422;-52
2023/07/16 03:11:30;;;;;;;32.30;14.98;;;23.00;99.90;;;;;;5091081;28;20437;-56
2023/07/16 03:14:34;;;;;;;37.60;15.93;;;22.90;99.90;;;;;;5090892;28;20035;-55
2023/07/16 03:17:38;;;;;;;28.85;15.02;;;22.90;99.90;;;;;;5091626;28;20039;-53
2023/07/16 03:20:42;;;;;;;26.33;15.57;;;22.80;99.90;;;;;;5091401;28;20039;-55
2023/07/16 03:23:46;;;;;;;28.60;15.70;;;22.80;99.90;;;;;;5090734;28;20635;-52
2023/07/16 03:26:50;;;;;;;25.55;16.33;;;22.80;99.90;;;;;;5091527;28;20054;-52
2023/07/16 03:29:53;;;;;;;26.63;14.95;;;22.80;99.90;;;;;;5090615;28;20047;-54
2023/07/16 03:32:57;;;;;;;28.73;14.82;;;22.80;99.90;;;;;;5089798;28;20502;-53
2023/07/16 03:36:02;;;;;;;27.27;15.77;;;22.70;99.90;;;;;;5090529;28;20051;-52
2023/07/16 03:39:06;;;;;;;29.80;14.95;;;22.70;99.90;;;;;;5091323;28;20059;-52
2023/07/16 03:42:12;;;;;;;24.98;15.35;;;22.70;99.90;;;;;;5089606;28;20043;-52
2023/07/16 03:45:16;;;;;;;27.13;15.02;;;22.60;99.90;;;;;;5090228;28;20051;-53
2023/07/16 03:48:20;;;;;;;28.80;15.88;;;22.60;99.90;;;;;;5090184;28;20043;-52
2023/07/16 03:51:24;;;;;;;26.15;13.52;;;22.60;99.90;;;;;;5090267;28;20403;-55
2023/07/16 03:54:31;;;;;;;34.47;16.02;;;22.50;99.90;;;;;;5089708;28;20402;-52
2023/07/16 03:57:35;;;;;;;27.92;15.18;;;22.50;99.90;;;;;;5089880;28;20043;-56
2023/07/16 04:00:41;;;;;;;33.67;16.25;;;22.50;99.90;;;;;;5089615;28;20055;-53
2023/07/16 04:03:45;;;;;;;23.52;13.65;;;22.60;99.90;;;;;;5089467;28;20114;-52
2023/07/16 04:06:49;;;;;;;28.90;13.35;;;22.60;99.90;;;;;;5090691;28;20051;-55
2023/07/16 04:09:53;;;;;;;24.65;14.20;;;22.70;99.90;;;;;;5090474;28;20047;-52
2023/07/16 04:12:57;;;;;;;22.63;13.45;;;22.70;99.90;;;;;;5089421;28;20066;-52
2023/07/16 04:16:01;;;;;;;25.77;13.85;;;22.80;99.90;;;;;;5090492;28;20066;-52
2023/07/16 04:19:05;;;;;;;24.58;13.98;;;22.80;99.90;;;;;;5090749;28;20047;-52
2023/07/16 04:22:09;;;;;;;19.13;12.65;;;22.80;99.90;;;;;;5090242;28;20043;-52
2023/07/16 04:25:13;;;;;;;25.10;13.70;;;22.80;99.90;;;;;;5090818;28;20051;-55
2023/07/16 04:28:17;;;;;;;22.67;13.18;;;22.90;99.90;;;;;;5090643;28;20051;-52
2023/07/16 04:31:21;;;;;;;22.00;12.52;;;22.90;99.90;;;;;;5089514;28;20039;-56
2023/07/16 04:34:25;;;;;;;31.40;13.18;;;23.00;99.90;;;;;;5090199;28;20090;-55
2023/07/16 04:37:29;;;;;;;23.65;13.25;;;23.10;99.90;;;;;;5090406;28;20414;-56
2023/07/16 04:40:33;;;;;;;22.45;12.35;;;23.20;99.90;;;;;;5090174;28;20047;-56
2023/07/16 04:43:37;;;;;;;25.83;12.10;;;24.20;99.90;;;;;;5089560;28;20055;-53
2023/07/16 04:46:40;;;;;;;27.02;13.25;;;25.70;99.90;;;;;;5089998;28;20039;-56
2023/07/16 04:49:44;;;;;;;22.40;11.05;;;26.50;99.90;;;;;;5090180;28;20090;-55
2023/07/16 04:52:48;;;;;;;25.85;12.60;;;27.40;99.90;;;;;;5088924;28;20051;-53
2023/07/16 04:55:52;;;;;;;35.38;17.45;;;28.10;99.90;;;;;;5090095;28;20051;-57
2023/07/16 04:58:56;;;;;;;33.45;18.15;;;28.70;99.90;;;;;;5089820;28;20517;-52
2023/07/16 05:02:01;;;;;;;21.02;11.80;;;27.70;99.90;;;;;;5089266;28;20051;-52
2023/07/16 05:05:06;;;;;;;26.00;11.48;;;27.20;99.90;;;;;;5069693;28;20402;-52
2023/07/16 05:08:10;;;;;;;20.17;10.20;;;28.00;99.90;;;;;;5069703;28;20044;-54
2023/07/16 05:11:14;;;;;;;17.95;9.80;;;28.90;99.90;;;;;;5068823;28;20502;-53
2023/07/16 05:14:18;;;;;;;16.02;9.32;;;30.20;99.90;;;;;;5069561;28;20047;-52
2023/07/16 05:17:23;;;;;;;19.35;9.80;;;30.90;99.90;;;;;;5068832;28;20048;-52
2023/07/16 05:20:26;;;;;;;22.83;11.05;;;31.10;99.90;;;;;;5069528;28;20075;-53
2023/07/16 05:23:30;;;;;;;22.95;10.85;;;31.10;99.90;;;;;;5071484;28;20039;-52
2023/07/16 05:26:34;;;;;;;21.33;11.82;;;31.30;99.90;;;;;;5073656;28;20415;-52
2023/07/16 05:29:38;;;;;;;25.48;11.55;;;31.20;99.90;;;;;;5073947;28;20052;-53
2023/07/16 05:32:42;;;;;;;22.15;10.95;;;31.10;99.90;;;;;;5072841;28;20051;-55
2023/07/16 05:35:50;;;;;;;24.63;10.18;;;30.80;99.90;;;;;;5073493;28;20051;-54
2023/07/16 05:38:54;;;;;;;19.08;10.02;;;30.90;99.90;;;;;;5073539;28;20052;-55
2023/07/16 05:41:58;;;;;;;20.50;10.63;;;29.30;99.90;;;;;;5072783;28;20130;-52
2023/07/16 05:45:02;;;;;;;18.95;9.07;;;28.90;99.90;;;;;;5073379;28;20399;-52
2023/07/16 05:48:06;;;;;;;22.48;9.10;;;29.50;99.90;;;;;;5073090;28;20052;-53
2023/07/16 05:51:11;;;;;;;16.70;8.38;;;29.80;99.90;;;;;;5072995;28;20044;-52
2023/07/16 05:54:15;;;;;;;14.15;7.70;;;30.30;99.90;;;;;;5072738;28;20047;-52
2023/07/16 05:57:18;;;;;;;20.20;9.00;;;30.80;99.90;;;;;;5072828;28;20051;-54
2023/07/16 06:00:23;;;;;;;15.82;8.15;;;31.20;99.90;;;;;;5073118;28;20514;-56
2023/07/16 06:03:27;;;;;;;19.90;6.93;;;30.80;99.90;;;;;;5072018;28;20051;-52
2023/07/16 06:06:31;;;;;;;23.30;8.10;;;31.40;99.90;;;;;;5071929;28;20506;-54
2023/07/16 06:09:35;;;;;;;24.17;8.02;;;31.70;99.90;;;;;;5072249;28;20055;-52
2023/07/16 06:12:39;;;;;;;14.82;8.20;;;32.20;99.90;;;;;;5072091;28;20059;-55
2023/07/16 06:15:43;;;;;;;17.92;7.32;;;31.30;99.90;;;;;;5072608;28;20051;-53
2023/07/16 06:18:47;;;;;;;22.73;7.13;;;31.70;99.90;;;;;;5072724;28;20047;-53
2023/07/16 06:21:51;;;;;;;11.43;6.40;;;32.40;99.90;;;;;;5072304;28;21382;-52
2023/07/16 06:24:55;;;;;;;16.67;7.13;;;33.10;99.90;;;;;;5072280;28;20039;-53
2023/07/16 06:27:59;;;;;;;17.90;6.80;;;33.50;99.90;;;;;;5072554;28;20043;-54
2023/07/16 06:31:03;;;;;;;12.98;6.40;;;34.10;99.90;;;;;;5072483;28;20046;-55
2023/07/16 06:34:07;;;;;;;13.80;6.57;;;35.10;99.90;;;;;;5071065;28;20052;-53
2023/07/16 06:37:11;;;;;;;17.50;5.93;;;35.60;99.90;;;;;;5072147;28;20047;-53
2023/07/16 06:40:15;;;;;;;14.50;5.93;;;35.60;99.90;;;;;;5072332;28;20115;-55
2023/07/16 06:43:19;;;;;;;13.30;5.93;;;35.80;99.90;;;;;;5071357;28;20043;-53
2023/07/16 06:46:23;;;;;;;12.90;5.65;;;36.00;99.90;;;;;;5072266;28;20055;-57
2023/07/16 06:49:27;;;;;;;10.70;5.40;;;36.30;99.90;;;;;;5072076;28;20048;-56
2023/07/16 06:52:31;;;;;;;12.27;5.28;;;36.80;98.90;;;;;;5071557;28;20036;-56
2023/07/16 06:55:35;;;;;;;10.63;4.97;;;37.10;98.50;;;;;;5072234;28;20541;-55
2023/07/16 06:58:39;;;;;;;19.40;5.85;;;37.60;97.40;;;;;;5071884;28;20040;-53
2023/07/16 07:01:42;;;;;;;10.80;4.95;;;38.00;97.20;;;;;;5071385;28;20042;-57
2023/07/16 07:04:46;;;;;;;10.70;4.85;;;37.90;96.90;;;;;;5071195;28;20075;-55
2023/07/16 07:07:50;;;;;;;14.98;5.20;;;38.10;96.50;;;;;;5071869;28;20047;-54
2023/07/16 07:10:54;;;;;;;13.85;5.93;;;37.30;96.80;;;;;;5071701;28;20039;-57
2023/07/16 07:13:58;;;;;;;10.98;5.50;;;35.80;97.30;;;;;;5070334;28;20060;-57
2023/07/16 07:17:02;;;;;;;11.18;5.07;;;35.00;98.20;;;;;;5071530;28;20158;-53
2023/07/16 07:20:06;;;;;;;16.17;5.32;;;35.00;98.30;;;;;;5071422;28;20043;-56
2023/07/16 07:23:10;;;;;;;11.60;5.05;;;35.40;98.00;;;;;;5070819;28;20043;-57
2023/07/16 07:26:14;;;;;;;13.98;6.30;;;35.60;97.50;;;;;;5071373;28;20051;-53
2023/07/16 07:29:18;;;;;;;14.30;5.18;;;34.30;99.70;;;;;;5071312;28;20044;-56
2023/07/16 07:32:22;;;;;;;14.05;6.00;;;35.40;99.00;;;;;;5070849;28;20055;-56
2023/07/16 07:35:26;;;;;;;11.80;5.43;;;36.80;97.90;;;;;;5070960;28;20044;-54
2023/07/16 07:38:30;;;;;;;14.07;5.88;;;36.50;97.80;;;;;;5071390;28;20052;-53
2023/07/16 07:41:34;;;;;;;11.45;5.10;;;35.00;98.60;;;;;;5070652;28;20047;-53
2023/07/16 07:44:38;;;;;;;11.25;5.18;;;35.50;98.70;;;;;;5070552;28;20055;-56
2023/07/16 07:47:42;;;;;;;12.93;5.97;;;35.80;97.90;;;;;;5070549;28;20043;-55
2023/07/16 07:50:46;;;;;;;14.57;5.95;;;36.50;97.60;;;;;;5070609;28;20047;-54
2023/07/16 07:53:50;;;;;;;12.50;5.57;;;35.90;98.50;;;;;;5069975;28;20040;-57
2023/07/16 07:56:54;;;;;;;13.48;5.47;;;36.00;98.10;;;;;;5070615;28;20055;-53
2023/07/16 07:59:59;;;;;;;11.10;4.82;;;36.50;96.50;;;;;;5070673;28;20055;-52
2023/07/16 08:03:03;;;;;;;14.23;5.20;;;35.30;97.30;;;;;;5070010;28;20055;-52
2023/07/16 08:06:07;;;;;;;11.95;5.88;;;35.50;98.10;;;;;;5070038;28;20047;-56
2023/07/16 08:09:11;;;;;;;13.90;5.38;;;35.40;98.40;;;;;;5070598;28;20402;-52
2023/07/16 08:12:15;;;;;;;12.85;5.22;;;37.30;97.20;;;;;;5070319;28;20036;-53
2023/07/16 08:15:19;;;;;;;12.15;5.28;;;36.40;97.90;;;;;;5070090;28;20047;-56
2023/07/16 08:18:23;;;;;;;15.35;5.53;;;37.10;97.50;;;;;;5070513;28;20052;-56
2023/07/16 08:21:27;;;;;;;17.52;5.40;;;38.00;97.00;;;;;;5070150;28;20044;-53
2023/07/16 08:24:31;;;;;;;15.52;5.22;;;38.40;96.50;;;;;;5070177;28;20518;-55
2023/07/16 08:27:35;;;;;;;14.02;5.60;;;38.50;96.70;;;;;;5070348;28;20046;-56
2023/07/16 08:30:39;;;;;;;12.40;5.88;;;36.80;96.90;;;;;;5070192;28;20039;-56
2023/07/16 08:33:43;;;;;;;15.90;5.75;;;35.60;98.40;;;;;;5070101;28;20094;-53
2023/07/16 08:36:47;;;;;;;15.30;5.43;;;35.30;99.10;;;;;;5070147;28;20051;-54
2023/07/16 08:39:53;;;;;;;13.57;5.68;;;38.20;97.40;;;;;;5069848;28;20071;-52
2023/07/16 08:42:58;;;;;;;11.00;5.10;;;39.70;95.50;;;;;;5069674;28;20043;-53
2023/07/16 08:46:02;;;;;;;11.23;4.78;;;40.70;94.50;;;;;;5069980;28;20039;-55
2023/07/16 08:49:07;;;;;;;10.43;4.63;;;40.80;93.00;;;;;;5070438;28;20055;-56
2023/07/16 08:52:13;;;;;;;10.80;4.55;;;38.80;94.20;;;;;;5069918;28;20047;-52
2023/07/16 08:55:18;;;;;;;13.23;4.95;;;39.80;94.00;;;;;;5069775;28;20040;-52
2023/07/16 08:58:24;;;;;;;12.07;4.55;;;38.60;93.10;;;;;;5069228;28;20513;-52
2023/07/16 09:01:27;;;;;;;13.73;4.85;;;39.30;94.20;;;;;;5069962;28;20048;-52
2023/07/16 09:04:32;;;;;;;10.93;4.90;;;40.70;92.90;;;;;;5069421;28;20043;-54
2023/07/16 09:07:37;;;;;;;12.63;4.38;;;38.80;93.20;;;;;;5069939;28;20115;-53
2023/07/16 09:10:42;;;;;;;15.50;4.10;;;39.30;92.90;;;;;;5069194;28;20434;-54
2023/07/16 09:13:46;;;;;;;11.45;4.78;;;39.70;91.50;;;;;;5069973;28;20514;-53
2023/07/16 09:16:51;;;;;;;8.60;3.78;;;39.40;92.10;;;;;;5069686;28;20056;-53
2023/07/16 09:19:55;;;;;;;15.02;4.05;;;39.60;91.90;;;;;;5070020;28;20509;-53
2023/07/16 09:22:59;;;;;;;10.60;4.00;;;40.00;92.10;;;;;;5069622;28;20474;-52
2023/07/16 09:26:03;;;;;;;10.27;3.42;;;42.20;91.10;;;;;;5069638;28;20043;-56
2023/07/16 09:29:07;;;;;;;7.90;3.20;;;40.80;89.90;;;;;;5070001;28;20055;-53
2023/07/16 09:32:11;;;;;;;9.65;3.28;;;40.60;89.10;;;;;;5069705;28;20059;-56
2023/07/16 09:35:16;;;;;;;6.82;2.92;;;41.70;85.30;;;;;;5069500;28;20040;-52
2023/07/16 09:38:21;;;;;;;10.30;3.33;;;39.50;85.20;;;;;;5069876;28;20399;-52
2023/07/16 09:41:26;;;;;;;7.43;2.70;;;39.70;87.00;;;;;;5069747;28;20044;-53
2023/07/16 09:44:32;;;;;;;7.65;3.42;;;41.30;84.10;;;;;;5069513;28;20055;-53
2023/07/16 09:47:36;;;;;;;8.15;3.30;;;40.00;85.20;;;;;;5069830;28;20047;-53
2023/07/16 09:50:53;;;;;;;13.82;3.20;;;41.00;84.20;;;;;;5069861;28;20045;-52
2023/07/16 09:54:00;;;;;;;9.65;3.47;;;39.80;82.40;;;;;;5069772;28;20055;-56
2023/07/16 09:57:06;;;;;;;9.15;3.15;;;38.00;82.30;;;;;;5068829;28;20119;-52
2023/07/16 10:00:15;;;;;;;13.15;3.75;;;38.10;82.60;;;;;;5069338;28;20040;-55
2023/07/16 10:03:20;;;;;;;7.50;3.00;;;41.90;81.90;;;;;;5068617;28;20055;-57
2023/07/16 10:06:24;;;;;;;8.32;3.28;;;44.40;78.80;;;;;;5068733;28;20039;-53
2023/07/16 10:09:40;;;;;;;8.77;3.20;;;44.20;77.40;;;;;;5069775;28;20047;-57
2023/07/16 10:12:56;;;;;;;12.40;3.28;;;46.30;75.60;;;;;;5072202;28;20048;-53
2023/07/16 10:16:00;;;;;;;15.48;3.97;;;46.90;74.10;;;;;;5072482;28;20043;-56
2023/07/16 10:19:05;;;;;;;7.53;2.83;;;46.10;71.70;;;;;;5072417;28;20040;-55
2023/07/16 10:22:08;;;;;;;9.63;3.78;;;47.00;71.60;;;;;;5072437;28;20521;-52
2023/07/16 10:25:19;;;;;;;9.07;3.25;;;45.90;71.50;;;;;;5072465;28;20055;-57
2023/07/16 10:28:23;;;;;;;13.15;3.30;;;44.90;71.10;;;;;;5071312;28;20044;-51
2023/07/16 10:31:27;;;;;;;9.55;3.13;;;44.60;72.20;;;;;;5072076;28;20043;-54
2023/07/16 10:34:31;;;;;;;12.25;3.03;;;46.40;70.70;;;;;;5072327;28;20048;-53
2023/07/16 10:37:35;;;;;;;11.65;3.50;;;44.80;71.70;;;;;;5072085;28;20059;-51
2023/07/16 10:40:43;;;;;;;6.32;3.30;;;42.90;74.30;;;;;;5072217;28;20521;-56
2023/07/16 10:43:47;;;;;;;11.80;3.17;;;42.90;74.20;;;;;;5071663;28;20051;-54
2023/07/16 10:46:54;;;;;;;11.13;3.63;;;43.70;73.60;;;;;;5071626;28;20403;-53
2023/07/16 10:49:58;;;;;;;9.75;3.40;;;43.20;73.50;;;;;;5072399;28;20059;-53
2023/07/16 10:53:02;;;;;;;9.25;3.30;;;44.20;71.00;;;;;;5091698;28;20046;-57
2023/07/16 10:56:06;;;;;;;10.85;3.33;;;45.00;72.20;;;;;;5092082;28;20042;-57
2023/07/16 10:59:11;;;;;;;11.93;4.07;;;42.90;72.40;;;;;;5091878;28;20047;-53
2023/07/16 11:02:16;;;;;;;12.55;3.60;;;42.80;72.00;;;;;;5091849;28;20047;-53
2023/07/16 11:05:20;;;;;;;11.68;3.40;;;42.00;75.50;;;;;;5092149;28;20054;-55
2023/07/16 11:08:25;;;;;;;15.07;3.90;;;42.50;71.70;;;;;;5091611;28;20063;-53
2023/07/16 11:11:32;;;;;;;14.40;3.65;;;43.30;72.60;;;;;;5091435;28;20047;-57
2023/07/16 11:14:37;;;;;;;8.68;3.38;;;45.20;69.80;;;;;;5091563;28;20058;-53
2023/07/16 11:17:40;;;;;;;11.05;3.50;;;45.70;68.00;;;;;;5091481;28;20043;-54
2023/07/16 11:20:44;;;;;;;7.82;3.08;;;45.70;68.80;;;;;;5091381;28;20316;-56
2023/07/16 11:23:48;;;;;;;14.98;3.85;;;44.90;70.00;;;;;;5091509;28;20268;-56
2023/07/16 11:26:54;;;;;;;14.52;3.30;;;45.60;70.30;;;;;;5091296;28;20395;-57
2023/07/16 11:30:00;;;;;;;13.18;3.70;;;45.10;68.10;;;;;;5091639;28;20043;-57
2023/07/16 11:33:10;;;;;;;10.05;3.70;;;42.90;71.40;;;;;;5091039;28;20051;-56
2023/07/16 11:36:16;;;;;;;7.28;3.03;;;44.40;69.80;;;;;;5091134;28;20062;-52
2023/07/16 11:39:20;;;;;;;9.82;3.50;;;43.50;70.30;;;;;;5091314;28;20047;-55
2023/07/16 11:42:29;;;;;;;9.38;3.80;;;43.70;68.40;;;;;;5090719;28;20043;-54
2023/07/16 11:45:33;;;;;;;9.73;3.45;;;42.40;69.10;;;;;;5084297;28;20047;-53
2023/07/16 11:48:37;;;;;;;12.73;3.97;;;42.10;69.60;;;;;;5090821;28;20399;-53
2023/07/16 11:51:43;;;;;;;12.90;4.05;;;40.60;70.50;;;;;;5090875;28;20047;-56
2023/07/16 11:54:48;;;;;;;14.55;3.60;;;40.80;69.80;;;;;;5090999;28;20047;-53
2023/07/16 11:57:52;;;;;;;10.10;3.58;;;40.80;70.50;;;;;;5090818;28;20051;-53
2023/07/16 12:00:56;;;;;;;12.85;3.40;;;42.30;69.30;;;;;;5090908;28;20506;-53
2023/07/16 12:04:00;;;;;;;13.75;3.13;;;42.70;68.80;;;;;;5090572;28;20047;-52
2023/07/16 12:07:04;;;;;;;8.40;3.05;;;42.60;68.00;;;;;;5089744;28;20486;-53
2023/07/16 12:10:08;;;;;;;13.18;3.45;;;43.10;69.60;;;;;;5090450;28;20047;-52
2023/07/16 12:13:12;;;;;;;12.07;3.17;;;41.90;70.00;;;;;;5090425;28;20047;-56
2023/07/16 12:16:15;;;;;;;16.27;4.10;;;40.20;69.10;;;;;;5090191;28;20402;-52
2023/07/16 12:19:19;;;;;;;13.52;4.22;;;40.50;69.80;;;;;;5089964;28;20403;-52
2023/07/16 12:22:24;;;;;;;19.05;4.22;;;41.00;68.80;;;;;;5090634;28;20054;-52
2023/07/16 12:25:28;;;;;;;12.95;3.78;;;40.80;69.70;;;;;;5090850;28;20043;-54
2023/07/16 12:28:32;;;;;;;17.00;4.38;;;39.20;70.70;;;;;;5090297;28;20043;-55
2023/07/16 12:31:37;;;;;;;11.88;3.70;;;39.70;72.30;;;;;;5089940;28;20039;-52
2023/07/16 12:34:40;;;;;;;14.52;3.83;;;40.20;71.60;;;;;;5090497;28;20055;-55
2023/07/16 12:37:46;;;;;;;12.70;3.65;;;40.40;70.40;;;;;;5090322;28;20051;-52
2023/07/16 12:40:50;;;;;;;13.27;4.40;;;40.10;71.20;;;;;;5090712;28;20047;-52
2023/07/16 12:43:54;;;;;;;13.90;3.97;;;39.70;70.30;;;;;;5090237;28;20063;-56
2023/07/16 12:46:58;;;;;;;13.68;4.15;;;39.50;72.30;;;;;;5090847;28;20047;-55
2023/07/16 12:50:02;;;;;;;17.00;3.70;;;39.70;72.50;;;;;;5090278;28;20050;-53
2023/07/16 12:53:06;;;;;;;17.52;4.20;;;39.50;74.20;;;;;;5090148;28;20051;-55
2023/07/16 12:56:10;;;;;;;10.90;3.25;;;40.10;71.50;;;;;;5090560;28;20043;-55
2023/07/16 12:59:14;;;;;;;13.60;3.63;;;39.20;70.70;;;;;;5090165;28;20047;-53
2023/07/16 13:02:18;;;;;;;17.27;3.92;;;39.80;73.10;;;;;;5089918;28;20047;-51
2023/07/16 13:05:22;;;;;;;15.68;4.05;;;39.00;72.30;;;;;;5090160;28;20047;-54
2023/07/16 13:08:26;;;;;;;12.38;4.10;;;39.00;72.60;;;;;;5089083;28;20043;-53
2023/07/16 13:11:30;;;;;;;12.82;3.95;;;38.60;74.60;;;;;;5090045;28;20043;-52
2023/07/16 13:14:34;;;;;;;20.58;5.47;;;38.20;76.50;;;;;;5089968;28;20043;-51
2023/07/16 13:17:38;;;;;;;18.65;4.40;;;37.30;75.50;;;;;;5090302;28;20051;-52
2023/07/16 13:20:42;;;;;;;16.17;3.58;;;37.10;75.30;;;;;;5090151;28;20051;-52
2023/07/16 13:23:46;;;;;;;14.65;4.60;;;37.00;75.20;;;;;;5090005;28;20051;-52
2023/07/16 13:26:50;;;;;;;14.48;4.03;;;36.40;76.90;;;;;;5090098;28;20515;-53
2023/07/16 13:29:54;;;;;;;19.30;5.43;;;36.30;76.10;;;;;;5089908;28;20051;-52
2023/07/16 13:32:58;;;;;;;10.60;4.43;;;36.00;75.80;;;;;;5089735;28;20110;-53
2023/07/16 13:36:04;;;;;;;12.00;4.10;;;36.00;75.40;;;;;;5090163;28;20398;-52
2023/07/16 13:39:09;;;;;;;17.15;4.30;;;36.10;77.50;;;;;;5090067;28;20051;-52
2023/07/16 13:42:13;;;;;;;13.90;4.22;;;36.50;76.10;;;;;;5089802;28;20051;-55
2023/07/16 13:45:17;;;;;;;18.00;5.18;;;36.10;76.40;;;;;;5093386;28;20577;-55
2023/07/16 13:48:21;;;;;;;20.48;4.85;;;36.50;77.30;;;;;;5093516;28;20055;-56
2023/07/16 13:51:25;;;;;;;15.25;4.50;;;36.00;76.20;;;;;;5093252;28;20039;-56
2023/07/16 13:54:29;;;;;;;12.48;4.60;;;36.40;76.40;;;;;;5093541;28;20502;-54
2023/07/16 13:57:32;;;;;;;15.05;4.38;;;36.30;76.40;;;;;;5093611;28;20063;-54
2023/07/16 14:00:36;;;;;;;12.68;4.63;;;36.50;77.70;;;;;;5093052;28;20071;-55
2023/07/16 14:03:40;;;;;;;13.43;4.20;;;36.70;79.40;;;;;;5093094;28;20050;-53
2023/07/16 14:06:44;;;;;;;13.85;4.32;;;37.20;77.60;;;;;;5093545;28;20042;-52
2023/07/16 14:09:49;;;;;;;19.90;5.32;;;37.20;75.40;;;;;;5093097;28;20521;-56
2023/07/16 14:12:52;;;;;;;13.35;3.83;;;36.20;78.00;;;;;;5092024;28;20043;-55
2023/07/16 14:15:56;;;;;;;16.25;4.63;;;36.20;80.70;;;;;;5093402;28;20042;-52
2023/07/16 14:19:01;;;;;;;19.17;5.35;;;36.50;77.50;;;;;;5091565;28;20035;-55
2023/07/16 14:22:05;;;;;;;18.83;5.10;;;35.20;79.60;;;;;;5092714;28;20047;-54
2023/07/16 14:25:09;;;;;;;15.18;4.10;;;34.70;78.30;;;;;;5092757;28;20043;-53
2023/07/16 14:28:12;;;;;;;12.75;4.85;;;35.10;79.20;;;;;;5092796;28;20409;-52
2023/07/16 14:31:17;;;;;;;20.33;4.43;;;35.60;78.80;;;;;;5092529;28;20055;-52
2023/07/16 14:34:20;;;;;;;13.85;4.18;;;35.50;81.30;;;;;;5092405;28;20051;-55
2023/07/16 14:37:25;;;;;;;14.55;4.10;;;35.90;78.90;;;;;;5092061;28;20054;-53
2023/07/16 14:40:29;;;;;;;14.00;4.45;;;36.00;77.80;;;;;;5092053;28;20059;-56
2023/07/16 14:43:33;;;;;;;10.63;4.32;;;35.90;78.30;;;;;;5092187;28;20055;-55
2023/07/16 14:46:37;;;;;;;18.45;5.07;;;35.80;79.10;;;;;;5092303;28;20047;-55
2023/07/16 14:49:42;;;;;;;16.25;4.85;;;35.30;83.90;;;;;;5092168;28;20043;-52
2023/07/16 14:52:46;;;;;;;14.90;5.25;;;35.20;80.90;;;;;;5092007;28;20055;-52
2023/07/16 14:55:52;;;;;;;21.42;5.38;;;35.10;81.00;;;;;;5091429;28;20043;-55
2023/07/16 14:58:56;;;;;;;16.58;4.60;;;34.90;82.80;;;;;;5091936;28;20437;-52
2023/07/16 15:02:00;;;;;;;24.20;4.50;;;35.20;82.30;;;;;;5092093;28;20512;-55
2023/07/16 15:05:04;;;;;;;25.92;5.38;;;35.00;81.60;;;;;;5092118;28;20039;-52
2023/07/16 15:08:08;;;;;;;22.20;5.43;;;35.30;84.50;;;;;;5091990;28;20171;-52
2023/07/16 15:11:13;;;;;;;25.30;6.07;;;35.00;82.50;;;;;;5091667;28;20063;-54
2023/07/16 15:14:17;;;;;;;27.58;5.93;;;35.20;84.90;;;;;;5091740;28;20035;-53
2023/07/16 15:17:22;;;;;;;23.73;5.43;;;34.90;82.80;;;;;;5091614;28;20051;-52
2023/07/16 15:20:26;;;;;;;24.85;5.03;;;34.70;83.80;;;;;;5091222;28;20047;-51
2023/07/16 15:23:32;;;;;;;20.65;5.68;;;34.80;84.60;;;;;;5091139;28;20052;-52
2023/07/16 15:26:35;;;;;;;21.65;6.65;;;34.70;85.40;;;;;;5091554;28;20043;-53
2023/07/16 15:29:39;;;;;;;19.08;5.65;;;34.70;85.40;;;;;;5091200;28;20043;-53
2023/07/16 15:32:43;;;;;;;16.60;5.43;;;35.00;84.00;;;;;;5090804;28;20050;-52
2023/07/16 15:35:47;;;;;;;21.17;5.72;;;35.00;86.30;;;;;;5091428;28;20055;-52
2023/07/16 15:38:51;;;;;;;23.20;6.03;;;35.20;84.80;;;;;;5091030;28;20051;-53
2023/07/16 15:41:57;;;;;;;19.08;5.57;;;34.80;85.20;;;;;;5090987;28;20051;-55
2023/07/16 15:45:01;;;;;;;17.42;5.80;;;34.50;85.60;;;;;;5090868;28;20047;-55